Meteo Giornale » Osservazioni meteo Francia » Dole Tavaux

ore: 12:00 - Osservazioni Meteo Dole Tavaux
Lat. 47° 2' N Lon. 5° 26' E Alt. 196 metri s.l.m.

sereno Europe/Paris

27 °C

Sereno

Temp. 24 Ore

12 °C

29 °C

Nord/NOvest

18.5 Km/h

Dew point 14 °C

Umidità 44 %

Visibilità  10 Km

Il sole sorge alle ore 05:40

Il sole tramonta alle ore 21:37

Data e Ora Cielo e Fenomeni T °C DP °C Um. % Pres. hPa Vis. km Vento km/h
Oggi h: 12:00 sereno Sereno 27 14 44 1019 10 N/NO 18.5
Oggi h: 11:30 sereno Sereno 26 15 50 1019 10 N 16.7
Oggi h: 11:00 sereno Sereno 26 15 50 1019 10 N 14.8
Oggi h: 10:30 sereno Sereno 26 17 57 1018 10 N 3.7
Oggi h: 10:00 sereno Sereno 24 16 60 1019 10 N 1.8
Oggi h: 09:30 sereno Sereno 22 16 68 1018 10 N 3.7
Oggi h: 09:00 sereno Sereno 20 15 72 1018 10 N 5.5
Oggi h: 08:30 sereno Sereno 19 15 77 1018 10 N 3.7
Oggi h: 08:00 sereno Sereno 18 14 77 1018 10 N 5.5
Oggi h: 07:30 sereno Sereno 17 15 88 1018 10 N 1.8
Oggi h: 07:00 sereno Sereno 15 14 93 1018 10 N 3.7
Oggi h: 06:30 sereno Sereno 14 13 93 1018 10 N 3.7
Oggi h: 06:00 sereno Sereno 12 11 93 1017 10 N 3.7
Oggi h: 05:30 sereno Sereno 13 12 93 1017 10 N 5.5
Oggi h: 05:00 sereno Sereno 14 13 93 1017 10 N 3.7
Oggi h: 04:30 sereno Sereno 14 13 93 1017 10 N 3.7
Oggi h: 04:00 sereno Sereno 13 12 93 1017 10 N 0
Oggi h: 03:30 sereno Sereno 15 14 93 1018 10 N 0
Oggi h: 03:00 sereno Sereno 14 12 87 1018 10 N 1.8
Oggi h: 02:30 sereno Sereno 16 14 87 1018 10 N 3.7
Oggi h: 02:00 sereno Sereno 16 13 82 1018 10 N 1.8
Oggi h: 01:30 sereno Sereno 17 13 77 1018 10 N 3.7
Oggi h: 00:30 sereno Sereno 19 13 68 1018 10 N 5.5
Oggi h: 00:00 sereno Sereno 20 12 59 1018 10 N 3.7
Ieri h: 23:30 sereno Sereno 21 12 56 1018 10 N 5.5
Ieri h: 22:30 sereno Sereno 20 13 64 1017 10 N 5.5
Ieri h: 22:00 sereno Sereno 22 13 56 1017 10 N 7.4
Ieri h: 21:30 sereno Sereno 24 14 53 1017 10 N/NE 9.3
Ieri h: 21:00 sereno Sereno 26 14 47 1017 10 N/NE 9.3
Ieri h: 20:30 sereno Sereno 26 14 47 1017 10 N 11.1
Ieri h: 20:00 sereno Sereno 27 13 42 1017 10 N 14.8
Ieri h: 19:30 sereno Sereno 28 12 37 1017 10 N 14.8
Ieri h: 19:00 sereno Sereno 28 13 39 1017 10 N 13
Ieri h: 18:30 sereno Sereno 29 16 45 1017 10 N 14.8
Ieri h: 17:30 sereno Sereno 29 15 42 1017 10 N 7.4
Ieri h: 17:00 sereno Sereno 29 15 42 1018 10 N/NO 7.4
Ieri h: 16:30 sereno Sereno 28 13 39 1018 10 N 5.5
Ieri h: 16:00 sereno Sereno 28 15 45 1018 10 NO 11.1
Ieri h: 15:30 sereno Sereno 28 14 42 1018 10 N 13
Ieri h: 15:00 sereno Sereno 28 16 48 1018 10 N 5.5
Ieri h: 14:30 sereno Sereno 28 16 48 1018 2 N 7.4
Ieri h: 14:00 sereno Sereno 27 16 50 1019 10 S 9.3
Ieri h: 13:30 sereno Sereno 27 15 47 1019 10 N 7.4
Ieri h: 13:00 sereno Sereno 26 16 54 1019 10 S 7.4